createdAt,value
2023-03-05T00:02:32.149Z,14.35
2023-03-05T00:07:33.592Z,12.25
2023-03-05T00:12:35.111Z,12.80
2023-03-05T00:17:36.559Z,13.73
2023-03-05T00:22:37.989Z,13.85
2023-03-05T00:27:39.609Z,13.32
2023-03-05T00:32:41.074Z,12.40
2023-03-05T00:37:42.795Z,12.30
2023-03-05T00:42:44.253Z,13.65
2023-03-05T00:47:45.727Z,12.93
2023-03-05T00:52:47.183Z,12.48
2023-03-05T00:57:48.602Z,11.95
2023-03-05T01:02:50.124Z,12.35
2023-03-05T01:07:55.923Z,13.07
2023-03-05T01:12:57.578Z,12.30
2023-03-05T01:17:59.036Z,12.40
2023-03-05T01:23:01.705Z,10.20
2023-03-05T01:28:03.713Z,11.77
2023-03-05T01:33:05.172Z,10.63
2023-03-05T01:38:07.271Z,7.65
2023-03-05T01:43:11.393Z,9.38
2023-03-05T01:48:12.855Z,10.50
2023-03-05T01:53:14.351Z,11.50
2023-03-05T01:58:15.812Z,8.73
2023-03-05T02:03:17.437Z,9.85
2023-03-05T02:08:22.112Z,10.07
2023-03-05T02:13:27.270Z,10.15
2023-03-05T02:18:28.805Z,10.75
2023-03-05T02:23:36.585Z,9.90
2023-03-05T02:28:51.952Z,10.05
2023-03-05T02:33:54.094Z,9.98
2023-03-05T02:38:57.392Z,12.55
2023-03-05T02:43:58.862Z,9.88
2023-03-05T02:49:00.698Z,10.77
2023-03-05T02:54:02.146Z,9.00
2023-03-05T02:59:03.907Z,12.02
2023-03-05T03:04:05.726Z,11.75
2023-03-05T03:09:07.195Z,11.13
2023-03-05T03:14:08.835Z,10.32
2023-03-05T03:19:10.302Z,10.82
2023-03-05T03:24:11.750Z,10.55
2023-03-05T03:29:13.147Z,12.85
2023-03-05T03:34:15.864Z,12.88
2023-03-05T03:39:17.617Z,11.65
2023-03-05T03:44:20.787Z,12.93
2023-03-05T03:49:25.141Z,13.48
2023-03-05T03:54:26.597Z,13.05
2023-03-05T03:59:28.172Z,13.68
2023-03-05T04:04:30.354Z,13.73
2023-03-05T04:09:31.825Z,11.50
2023-03-05T04:14:33.324Z,13.88
2023-03-05T04:19:36.835Z,12.68
2023-03-05T04:24:38.765Z,12.70
2023-03-05T04:29:40.168Z,14.32
2023-03-05T04:34:41.614Z,11.63
2023-03-05T04:39:43.726Z,12.02
2023-03-05T04:44:45.360Z,12.75
2023-03-05T04:49:46.930Z,12.70
2023-03-05T04:54:48.440Z,12.27
2023-03-05T04:59:49.904Z,11.20
2023-03-05T05:04:54.722Z,12.93
2023-03-05T05:09:56.135Z,12.52
2023-03-05T05:14:58.027Z,15.05
2023-03-05T05:20:00.572Z,13.07
2023-03-05T05:25:02.139Z,12.93
2023-03-05T05:30:04.519Z,12.75
2023-03-05T05:35:06.484Z,10.60
2023-03-05T05:40:09.522Z,10.88
2023-03-05T05:45:12.058Z,10.73
2023-03-05T05:50:14.481Z,12.60
2023-03-05T05:55:16.084Z,11.30
2023-03-05T06:00:17.913Z,11.68
2023-03-05T06:05:19.509Z,12.00
2023-03-05T06:10:20.999Z,10.27
2023-03-05T06:15:22.421Z,12.95
2023-03-05T06:20:23.946Z,13.73
2023-03-05T06:25:25.373Z,11.60
2023-03-05T06:30:26.846Z,13.00
2023-03-05T06:35:28.333Z,12.18
2023-03-05T06:40:29.793Z,14.50
2023-03-05T06:45:31.347Z,16.13
2023-03-05T06:50:36.550Z,15.13
2023-03-05T06:55:39.752Z,16.33
2023-03-05T07:00:41.514Z,17.27
2023-03-05T07:05:43.699Z,15.82
2023-03-05T07:10:45.201Z,16.23
2023-03-05T07:15:46.613Z,16.10
2023-03-05T07:20:48.115Z,16.50
2023-03-05T07:25:49.497Z,14.55
2023-03-05T07:31:05.554Z,15.48
2023-03-05T07:36:11.514Z,16.25
2023-03-05T07:41:19.641Z,16.10
2023-03-05T07:46:24.750Z,15.10
2023-03-05T07:51:27.316Z,15.48
2023-03-05T07:56:35.287Z,15.02
2023-03-05T08:01:37.380Z,14.98
2023-03-05T08:06:40.963Z,16.30
2023-03-05T08:11:42.804Z,15.50
2023-03-05T08:16:46.313Z,15.98
2023-03-05T08:21:48.665Z,18.55
2023-03-05T08:26:50.080Z,17.10
2023-03-05T08:31:53.614Z,16.98
2023-03-05T08:36:55.204Z,18.38
2023-03-05T08:41:56.761Z,18.13
2023-03-05T08:46:58.212Z,18.17
2023-03-05T08:51:59.672Z,16.77
2023-03-05T08:57:01.446Z,16.05
2023-03-05T09:02:04.361Z,17.65
2023-03-05T09:07:06.001Z,16.50
2023-03-05T09:12:07.725Z,19.20
2023-03-05T09:17:09.325Z,16.90
2023-03-05T09:22:10.736Z,14.98
2023-03-05T09:27:12.805Z,15.65
2023-03-05T09:32:14.394Z,17.88
2023-03-05T09:37:15.877Z,16.58
2023-03-05T09:42:41.716Z,15.82
2023-03-05T09:48:06.478Z,14.38
2023-03-05T09:53:21.805Z,17.48
2023-03-05T09:58:33.884Z,17.75
2023-03-05T10:03:58.031Z,15.15
2023-03-05T10:09:28.330Z,15.02
2023-03-05T10:14:35.627Z,16.88
2023-03-05T10:19:51.699Z,16.08
2023-03-05T10:25:05.366Z,16.85
2023-03-05T10:30:29.196Z,16.20
2023-03-05T10:35:45.472Z,14.63
2023-03-05T10:40:51.241Z,14.32
2023-03-05T10:45:54.023Z,15.93
2023-03-05T10:51:13.479Z,14.73
2023-03-05T10:56:15.880Z,14.23
2023-03-05T11:01:24.316Z,14.13
2023-03-05T11:06:41.832Z,14.30
2023-03-05T11:11:43.618Z,14.27
2023-03-05T11:16:50.887Z,14.80
2023-03-05T11:22:20.528Z,13.38
2023-03-05T11:27:43.081Z,13.88
2023-03-05T11:32:44.557Z,13.93
2023-03-05T11:38:00.758Z,14.68
2023-03-05T11:43:03.964Z,13.50
2023-03-05T11:48:28.385Z,11.85
2023-03-05T11:53:35.895Z,12.80
2023-03-05T11:59:04.682Z,12.35
2023-03-05T12:04:08.536Z,11.45
2023-03-05T12:09:18.675Z,12.75
2023-03-05T12:14:28.771Z,12.10
2023-03-05T12:19:39.380Z,11.98
2023-03-05T12:24:41.182Z,11.25
2023-03-05T12:29:49.241Z,12.43
2023-03-05T12:35:26.107Z,13.52
2023-03-05T12:40:29.015Z,12.30
2023-03-05T12:45:36.412Z,12.23
2023-03-05T12:50:37.745Z,11.18
2023-03-05T12:55:48.289Z,13.25
2023-03-05T13:05:58.811Z,13.70
2023-03-05T13:11:01.232Z,12.85
2023-03-05T13:16:03.842Z,11.00
2023-03-05T13:21:08.137Z,11.52
2023-03-05T13:26:15.475Z,12.52
2023-03-05T13:31:19.329Z,13.23
2023-03-05T13:36:24.032Z,15.35
2023-03-05T13:41:27.738Z,14.95
2023-03-05T13:46:39.229Z,14.27
2023-03-05T13:51:42.789Z,14.32
2023-03-05T13:57:00.200Z,14.60
2023-03-05T14:02:05.848Z,14.32
2023-03-05T14:07:24.444Z,14.40
2023-03-05T14:12:35.637Z,13.15
2023-03-05T14:17:43.688Z,13.50
2023-03-05T14:22:48.443Z,11.38
2023-03-05T14:27:49.902Z,11.90
2023-03-05T14:32:55.474Z,10.82
2023-03-05T14:37:59.270Z,12.57
2023-03-05T14:43:10.796Z,11.50
2023-03-05T14:48:15.145Z,12.18
2023-03-05T14:53:38.637Z,12.13
2023-03-05T14:58:40.174Z,13.90
2023-03-05T15:03:41.666Z,13.93
2023-03-05T15:08:43.200Z,12.65
2023-03-05T15:13:44.658Z,12.13
2023-03-05T15:18:46.209Z,12.65
2023-03-05T15:23:47.651Z,16.00
2023-03-05T15:28:49.861Z,16.65
2023-03-05T15:33:51.289Z,15.45
2023-03-05T15:38:52.676Z,23.50
2023-03-05T15:43:54.106Z,24.85
2023-03-05T15:48:55.520Z,23.52
2023-03-05T15:53:57.919Z,14.18
2023-03-05T15:58:59.831Z,14.40
2023-03-05T16:04:01.726Z,15.57
2023-03-05T16:09:04.909Z,15.05
2023-03-05T16:14:09.755Z,13.70
2023-03-05T16:19:15.743Z,13.45
2023-03-05T16:24:17.670Z,12.55
2023-03-05T16:29:19.264Z,13.77
2023-03-05T16:34:20.850Z,13.30
2023-03-05T16:39:22.608Z,13.02
2023-03-05T16:44:24.036Z,13.50
2023-03-05T16:49:25.527Z,13.45
2023-03-05T16:54:27.183Z,14.25
2023-03-05T16:59:29.578Z,11.90
2023-03-05T17:04:31.119Z,15.75
2023-03-05T17:09:32.940Z,13.63
2023-03-05T17:14:34.480Z,14.57
2023-03-05T17:19:35.994Z,25.45
2023-03-05T17:24:38.379Z,19.10
2023-03-05T17:29:39.892Z,28.75
2023-03-05T17:34:41.645Z,32.72
2023-03-05T17:39:43.261Z,24.00
2023-03-05T17:44:44.696Z,21.52
2023-03-05T17:49:46.128Z,16.25
2023-03-05T17:54:48.925Z,18.05
2023-03-05T17:59:50.438Z,16.50
2023-03-05T18:04:52.144Z,16.63
2023-03-05T18:09:53.541Z,18.48
2023-03-05T18:14:54.919Z,16.65
2023-03-05T18:19:56.691Z,16.30
2023-03-05T18:24:58.182Z,16.58
2023-03-05T18:29:59.584Z,14.95
2023-03-05T18:35:01.024Z,14.95
2023-03-05T18:40:03.165Z,14.77
2023-03-05T18:45:06.436Z,12.95
2023-03-05T18:50:14.690Z,15.18
2023-03-05T18:55:20.284Z,14.70
2023-03-05T19:00:25.334Z,14.88
2023-03-05T19:05:26.943Z,17.02
2023-03-05T19:10:28.475Z,22.83
2023-03-05T19:15:29.925Z,26.08
2023-03-05T19:20:31.444Z,19.85
2023-03-05T19:25:33.400Z,19.80
2023-03-05T19:30:35.947Z,18.50
2023-03-05T19:35:37.669Z,23.35
2023-03-05T19:40:41.477Z,21.70
2023-03-05T19:45:43.176Z,18.73
2023-03-05T19:50:44.564Z,17.55
2023-03-05T19:55:45.952Z,18.15
2023-03-05T20:00:47.500Z,17.58
2023-03-05T20:05:48.919Z,16.88
2023-03-05T20:10:50.373Z,16.40
2023-03-05T20:15:52.676Z,12.32
2023-03-05T20:20:57.766Z,12.55
2023-03-05T20:25:59.638Z,11.70
2023-03-05T20:31:02.140Z,10.95
2023-03-05T20:36:04.353Z,11.60
2023-03-05T20:41:10.138Z,11.30
2023-03-05T20:46:19.020Z,11.50
2023-03-05T20:51:26.244Z,10.95
2023-03-05T20:56:29.198Z,12.57
2023-03-05T21:01:33.028Z,11.68
2023-03-05T21:06:34.884Z,10.77
2023-03-05T21:11:37.256Z,9.63
2023-03-05T21:16:38.921Z,10.57
2023-03-05T21:21:44.702Z,9.13
2023-03-05T21:26:46.539Z,9.57
2023-03-05T21:31:48.052Z,10.50
2023-03-05T21:36:49.480Z,10.52
2023-03-05T21:41:50.969Z,10.63
2023-03-05T21:46:52.407Z,11.63
2023-03-05T21:52:08.980Z,11.77
2023-03-05T21:57:11.507Z,11.80
2023-03-05T22:02:14.095Z,10.45
2023-03-05T22:07:16.753Z,9.63
2023-03-05T22:12:26.785Z,10.30
2023-03-05T22:17:28.170Z,9.45
2023-03-05T22:22:29.673Z,8.60
2023-03-05T22:27:31.137Z,9.48
2023-03-05T22:32:34.988Z,8.30
2023-03-05T22:37:36.390Z,9.15
2023-03-05T22:42:37.789Z,7.70
2023-03-05T22:47:39.171Z,9.07
2023-03-05T22:52:40.604Z,8.48
2023-03-05T22:57:43.691Z,10.60
2023-03-05T23:02:45.130Z,7.68
2023-03-05T23:07:46.649Z,7.38
2023-03-05T23:12:50.718Z,6.68
2023-03-05T23:17:52.300Z,9.35
2023-03-05T23:22:55.932Z,8.48
2023-03-05T23:27:58.633Z,7.78
2023-03-05T23:33:07.721Z,8.23
2023-03-05T23:38:12.572Z,7.30
2023-03-05T23:43:15.496Z,7.95
2023-03-05T23:48:17.895Z,9.23
2023-03-05T23:53:25.544Z,9.68
2023-03-05T23:58:27.044Z,8.35
